sensor_id;sensor_type;location;lat;lon;timestamp;P1;durP1;ratioP1;P2;durP2;ratioP2
12482;SDS011;6306;47.134;15.344;2024-01-30T00:02:20;9.00;;;5.73;;
12482;SDS011;6306;47.134;15.344;2024-01-30T00:04:46;7.13;;;5.30;;
12482;SDS011;6306;47.134;15.344;2024-01-30T00:07:13;10.37;;;7.10;;
12482;SDS011;6306;47.134;15.344;2024-01-30T00:12:05;8.70;;;6.30;;
12482;SDS011;6306;47.134;15.344;2024-01-30T00:14:32;6.80;;;5.30;;
12482;SDS011;6306;47.134;15.344;2024-01-30T00:16:58;12.10;;;7.10;;
12482;SDS011;6306;47.134;15.344;2024-01-30T00:19:26;10.37;;;6.97;;
12482;SDS011;6306;47.134;15.344;2024-01-30T00:26:44;7.67;;;5.63;;
12482;SDS011;6306;47.134;15.344;2024-01-30T00:29:10;10.53;;;5.60;;
12482;SDS011;6306;47.134;15.344;2024-01-30T00:31:37;12.30;;;6.87;;
12482;SDS011;6306;47.134;15.344;2024-01-30T00:34:03;8.57;;;5.70;;
12482;SDS011;6306;47.134;15.344;2024-01-30T00:36:30;10.23;;;6.63;;
12482;SDS011;6306;47.134;15.344;2024-01-30T00:41:25;7.40;;;5.33;;
12482;SDS011;6306;47.134;15.344;2024-01-30T00:43:52;7.73;;;6.00;;
12482;SDS011;6306;47.134;15.344;2024-01-30T00:46:18;11.53;;;6.20;;
12482;SDS011;6306;47.134;15.344;2024-01-30T00:48:45;13.33;;;7.10;;
12482;SDS011;6306;47.134;15.344;2024-01-30T00:56:03;9.57;;;6.30;;
12482;SDS011;6306;47.134;15.344;2024-01-30T01:03:21;8.63;;;6.77;;
12482;SDS011;6306;47.134;15.344;2024-01-30T01:05:47;27.70;;;8.07;;
12482;SDS011;6306;47.134;15.344;2024-01-30T01:15:32;10.60;;;8.53;;
12482;SDS011;6306;47.134;15.344;2024-01-30T01:17:59;9.67;;;6.33;;
12482;SDS011;6306;47.134;15.344;2024-01-30T01:20:31;9.70;;;6.70;;
12482;SDS011;6306;47.134;15.344;2024-01-30T01:23:00;12.27;;;7.17;;
12482;SDS011;6306;47.134;15.344;2024-01-30T01:25:26;8.50;;;5.83;;
12482;SDS011;6306;47.134;15.344;2024-01-30T01:27:55;10.53;;;6.43;;
12482;SDS011;6306;47.134;15.344;2024-01-30T01:30:22;10.57;;;6.63;;
12482;SDS011;6306;47.134;15.344;2024-01-30T01:32:51;9.60;;;6.67;;
12482;SDS011;6306;47.134;15.344;2024-01-30T01:35:25;8.30;;;7.00;;
12482;SDS011;6306;47.134;15.344;2024-01-30T01:37:53;14.07;;;7.57;;
12482;SDS011;6306;47.134;15.344;2024-01-30T01:40:26;9.97;;;6.07;;
12482;SDS011;6306;47.134;15.344;2024-01-30T01:45:30;8.30;;;6.30;;
12482;SDS011;6306;47.134;15.344;2024-01-30T01:48:02;7.17;;;6.37;;
12482;SDS011;6306;47.134;15.344;2024-01-30T01:50:31;13.63;;;6.50;;
12482;SDS011;6306;47.134;15.344;2024-01-30T01:52:59;5.03;;;4.30;;
12482;SDS011;6306;47.134;15.344;2024-01-30T01:55:26;10.63;;;5.70;;
12482;SDS011;6306;47.134;15.344;2024-01-30T01:57:54;6.87;;;5.57;;
12482;SDS011;6306;47.134;15.344;2024-01-30T02:00:27;9.20;;;5.90;;
12482;SDS011;6306;47.134;15.344;2024-01-30T02:02:54;7.73;;;5.40;;
12482;SDS011;6306;47.134;15.344;2024-01-30T02:05:21;7.80;;;6.40;;
12482;SDS011;6306;47.134;15.344;2024-01-30T02:07:47;7.80;;;5.10;;
12482;SDS011;6306;47.134;15.344;2024-01-30T02:10:27;10.40;;;6.03;;
12482;SDS011;6306;47.134;15.344;2024-01-30T02:12:53;9.90;;;6.20;;
12482;SDS011;6306;47.134;15.344;2024-01-30T02:15:19;8.33;;;6.20;;
12482;SDS011;6306;47.134;15.344;2024-01-30T02:20:17;8.00;;;6.87;;
12482;SDS011;6306;47.134;15.344;2024-01-30T02:22:45;8.90;;;5.93;;
12482;SDS011;6306;47.134;15.344;2024-01-30T02:25:18;8.50;;;6.77;;
12482;SDS011;6306;47.134;15.344;2024-01-30T02:27:44;7.67;;;6.10;;
12482;SDS011;6306;47.134;15.344;2024-01-30T02:30:10;10.00;;;5.10;;
12482;SDS011;6306;47.134;15.344;2024-01-30T02:32:38;8.43;;;5.90;;
12482;SDS011;6306;47.134;15.344;2024-01-30T02:35:12;9.77;;;5.47;;
12482;SDS011;6306;47.134;15.344;2024-01-30T02:37:41;9.70;;;6.60;;
12482;SDS011;6306;47.134;15.344;2024-01-30T02:40:07;11.17;;;6.30;;
12482;SDS011;6306;47.134;15.344;2024-01-30T02:42:35;7.37;;;4.63;;
12482;SDS011;6306;47.134;15.344;2024-01-30T02:45:01;18.30;;;6.30;;
12482;SDS011;6306;47.134;15.344;2024-01-30T02:47:31;9.70;;;5.17;;
12482;SDS011;6306;47.134;15.344;2024-01-30T02:49:58;9.43;;;6.73;;
12482;SDS011;6306;47.134;15.344;2024-01-30T02:52:33;10.30;;;4.73;;
12482;SDS011;6306;47.134;15.344;2024-01-30T02:54:59;7.80;;;5.53;;
12482;SDS011;6306;47.134;15.344;2024-01-30T02:59:56;10.17;;;5.80;;
12482;SDS011;6306;47.134;15.344;2024-01-30T03:02:22;8.07;;;5.23;;
12482;SDS011;6306;47.134;15.344;2024-01-30T03:04:49;11.77;;;6.50;;
12482;SDS011;6306;47.134;15.344;2024-01-30T03:07:24;9.13;;;5.67;;
12482;SDS011;6306;47.134;15.344;2024-01-30T03:09:50;7.47;;;5.07;;
12482;SDS011;6306;47.134;15.344;2024-01-30T03:12:16;9.00;;;4.93;;
12482;SDS011;6306;47.134;15.344;2024-01-30T03:14:48;6.53;;;5.10;;
12482;SDS011;6306;47.134;15.344;2024-01-30T03:20:06;7.33;;;5.03;;
12482;SDS011;6306;47.134;15.344;2024-01-30T03:22:32;9.60;;;5.00;;
12482;SDS011;6306;47.134;15.344;2024-01-30T03:25:01;7.47;;;5.07;;
12482;SDS011;6306;47.134;15.344;2024-01-30T03:27:28;8.50;;;5.40;;
12482;SDS011;6306;47.134;15.344;2024-01-30T03:30:03;7.43;;;4.57;;
12482;SDS011;6306;47.134;15.344;2024-01-30T03:32:29;6.40;;;5.00;;
12482;SDS011;6306;47.134;15.344;2024-01-30T03:34:57;11.80;;;5.60;;
12482;SDS011;6306;47.134;15.344;2024-01-30T03:37:24;7.17;;;5.13;;
12482;SDS011;6306;47.134;15.344;2024-01-30T03:39:52;6.07;;;4.83;;
12482;SDS011;6306;47.134;15.344;2024-01-30T03:42:19;7.00;;;5.20;;
12482;SDS011;6306;47.134;15.344;2024-01-30T03:44:48;8.47;;;5.47;;
12482;SDS011;6306;47.134;15.344;2024-01-30T03:47:17;5.90;;;5.00;;
12482;SDS011;6306;47.134;15.344;2024-01-30T03:54:38;11.50;;;5.53;;
12482;SDS011;6306;47.134;15.344;2024-01-30T03:57:04;8.13;;;5.23;;
12482;SDS011;6306;47.134;15.344;2024-01-30T03:59:33;4.67;;;4.23;;
12482;SDS011;6306;47.134;15.344;2024-01-30T04:01:59;7.63;;;5.07;;
12482;SDS011;6306;47.134;15.344;2024-01-30T04:04:35;10.10;;;5.53;;
12482;SDS011;6306;47.134;15.344;2024-01-30T04:07:04;11.63;;;5.17;;
12482;SDS011;6306;47.134;15.344;2024-01-30T04:09:33;12.10;;;5.90;;
12482;SDS011;6306;47.134;15.344;2024-01-30T04:12:00;7.80;;;5.20;;
12482;SDS011;6306;47.134;15.344;2024-01-30T04:14:37;10.90;;;5.13;;
12482;SDS011;6306;47.134;15.344;2024-01-30T04:17:04;13.60;;;5.30;;
12482;SDS011;6306;47.134;15.344;2024-01-30T04:19:39;9.97;;;4.80;;
12482;SDS011;6306;47.134;15.344;2024-01-30T04:22:05;10.20;;;5.37;;
12482;SDS011;6306;47.134;15.344;2024-01-30T04:24:44;6.27;;;5.67;;
12482;SDS011;6306;47.134;15.344;2024-01-30T04:27:11;10.30;;;5.17;;
12482;SDS011;6306;47.134;15.344;2024-01-30T04:29:38;9.33;;;6.77;;
12482;SDS011;6306;47.134;15.344;2024-01-30T04:34:49;12.47;;;6.30;;
12482;SDS011;6306;47.134;15.344;2024-01-30T04:37:16;5.33;;;4.10;;
12482;SDS011;6306;47.134;15.344;2024-01-30T04:39:44;5.87;;;5.07;;
12482;SDS011;6306;47.134;15.344;2024-01-30T04:42:11;10.43;;;4.83;;
12482;SDS011;6306;47.134;15.344;2024-01-30T04:44:37;7.00;;;5.60;;
12482;SDS011;6306;47.134;15.344;2024-01-30T04:47:05;6.03;;;5.10;;
12482;SDS011;6306;47.134;15.344;2024-01-30T04:49:34;7.70;;;5.40;;
12482;SDS011;6306;47.134;15.344;2024-01-30T04:52:04;7.50;;;5.27;;
12482;SDS011;6306;47.134;15.344;2024-01-30T04:54:33;6.63;;;5.60;;
12482;SDS011;6306;47.134;15.344;2024-01-30T04:57:00;9.30;;;5.00;;
12482;SDS011;6306;47.134;15.344;2024-01-30T04:59:27;7.63;;;6.37;;
12482;SDS011;6306;47.134;15.344;2024-01-30T05:01:54;9.67;;;6.70;;
12482;SDS011;6306;47.134;15.344;2024-01-30T05:04:21;8.07;;;6.53;;
12482;SDS011;6306;47.134;15.344;2024-01-30T05:06:48;8.80;;;6.30;;
12482;SDS011;6306;47.134;15.344;2024-01-30T05:09:14;8.17;;;6.60;;
12482;SDS011;6306;47.134;15.344;2024-01-30T05:14:21;9.47;;;6.03;;
12482;SDS011;6306;47.134;15.344;2024-01-30T05:19:24;11.67;;;5.47;;
12482;SDS011;6306;47.134;15.344;2024-01-30T05:24:27;7.10;;;5.63;;
12482;SDS011;6306;47.134;15.344;2024-01-30T05:27:05;17.20;;;5.83;;
12482;SDS011;6306;47.134;15.344;2024-01-30T05:29:47;8.70;;;6.53;;
12482;SDS011;6306;47.134;15.344;2024-01-30T05:32:15;7.17;;;5.17;;
12482;SDS011;6306;47.134;15.344;2024-01-30T05:34:43;8.60;;;5.87;;
12482;SDS011;6306;47.134;15.344;2024-01-30T05:37:11;6.37;;;4.57;;
12482;SDS011;6306;47.134;15.344;2024-01-30T05:39:42;12.20;;;5.03;;
12482;SDS011;6306;47.134;15.344;2024-01-30T05:42:09;6.03;;;4.63;;
12482;SDS011;6306;47.134;15.344;2024-01-30T05:44:36;8.67;;;4.80;;
12482;SDS011;6306;47.134;15.344;2024-01-30T05:47:05;12.50;;;5.83;;
12482;SDS011;6306;47.134;15.344;2024-01-30T05:49:33;9.87;;;6.67;;
12482;SDS011;6306;47.134;15.344;2024-01-30T05:52:04;9.17;;;5.80;;
12482;SDS011;6306;47.134;15.344;2024-01-30T05:54:36;9.23;;;6.00;;
12482;SDS011;6306;47.134;15.344;2024-01-30T05:57:09;14.23;;;4.90;;
12482;SDS011;6306;47.134;15.344;2024-01-30T05:59:47;13.00;;;5.97;;
12482;SDS011;6306;47.134;15.344;2024-01-30T06:02:15;14.60;;;5.83;;
12482;SDS011;6306;47.134;15.344;2024-01-30T06:04:42;6.60;;;5.10;;
12482;SDS011;6306;47.134;15.344;2024-01-30T06:07:09;6.80;;;6.00;;
12482;SDS011;6306;47.134;15.344;2024-01-30T06:09:36;7.00;;;5.23;;
12482;SDS011;6306;47.134;15.344;2024-01-30T06:12:06;13.90;;;5.80;;
12482;SDS011;6306;47.134;15.344;2024-01-30T06:14:34;6.60;;;5.60;;
12482;SDS011;6306;47.134;15.344;2024-01-30T06:17:02;6.93;;;5.17;;
12482;SDS011;6306;47.134;15.344;2024-01-30T06:19:29;10.20;;;5.33;;
12482;SDS011;6306;47.134;15.344;2024-01-30T06:21:56;11.33;;;6.70;;
12482;SDS011;6306;47.134;15.344;2024-01-30T06:24:24;8.33;;;5.27;;
12482;SDS011;6306;47.134;15.344;2024-01-30T06:29:35;10.60;;;5.10;;
12482;SDS011;6306;47.134;15.344;2024-01-30T06:32:02;7.20;;;6.20;;
12482;SDS011;6306;47.134;15.344;2024-01-30T06:34:29;12.10;;;6.80;;
12482;SDS011;6306;47.134;15.344;2024-01-30T06:36:55;6.50;;;5.30;;
12482;SDS011;6306;47.134;15.344;2024-01-30T06:39:37;5.50;;;4.50;;
12482;SDS011;6306;47.134;15.344;2024-01-30T06:42:05;6.50;;;5.07;;
12482;SDS011;6306;47.134;15.344;2024-01-30T06:44:33;10.03;;;6.90;;
12482;SDS011;6306;47.134;15.344;2024-01-30T06:47:01;8.40;;;5.80;;
12482;SDS011;6306;47.134;15.344;2024-01-30T06:49:28;14.03;;;5.83;;
12482;SDS011;6306;47.134;15.344;2024-01-30T06:51:54;10.50;;;6.17;;
12482;SDS011;6306;47.134;15.344;2024-01-30T06:54:22;8.13;;;5.53;;
12482;SDS011;6306;47.134;15.344;2024-01-30T06:56:55;12.23;;;6.63;;
12482;SDS011;6306;47.134;15.344;2024-01-30T06:59:22;16.30;;;6.60;;
12482;SDS011;6306;47.134;15.344;2024-01-30T07:01:49;8.13;;;5.27;;
12482;SDS011;6306;47.134;15.344;2024-01-30T07:04:18;7.87;;;5.83;;
12482;SDS011;6306;47.134;15.344;2024-01-30T07:06:57;7.80;;;5.67;;
12482;SDS011;6306;47.134;15.344;2024-01-30T07:09:24;6.90;;;5.70;;
12482;SDS011;6306;47.134;15.344;2024-01-30T07:11:56;6.83;;;5.87;;
12482;SDS011;6306;47.134;15.344;2024-01-30T07:14:32;6.17;;;5.27;;
12482;SDS011;6306;47.134;15.344;2024-01-30T07:16:59;9.17;;;6.23;;
12482;SDS011;6306;47.134;15.344;2024-01-30T07:19:28;9.50;;;6.00;;
12482;SDS011;6306;47.134;15.344;2024-01-30T07:21:56;7.67;;;5.50;;
12482;SDS011;6306;47.134;15.344;2024-01-30T07:24:22;8.90;;;6.60;;
12482;SDS011;6306;47.134;15.344;2024-01-30T07:26:49;20.87;;;10.00;;
12482;SDS011;6306;47.134;15.344;2024-01-30T07:29:18;19.87;;;10.90;;
12482;SDS011;6306;47.134;15.344;2024-01-30T07:31:45;15.97;;;9.63;;
12482;SDS011;6306;47.134;15.344;2024-01-30T07:36:58;20.27;;;9.37;;
12482;SDS011;6306;47.134;15.344;2024-01-30T07:39:26;12.87;;;9.57;;
12482;SDS011;6306;47.134;15.344;2024-01-30T07:41:58;11.67;;;8.47;;
12482;SDS011;6306;47.134;15.344;2024-01-30T07:44:25;16.70;;;8.60;;
12482;SDS011;6306;47.134;15.344;2024-01-30T07:46:52;15.57;;;9.40;;
12482;SDS011;6306;47.134;15.344;2024-01-30T07:49:21;23.67;;;15.13;;
12482;SDS011;6306;47.134;15.344;2024-01-30T07:51:48;39.10;;;20.83;;
12482;SDS011;6306;47.134;15.344;2024-01-30T07:54:16;39.93;;;20.50;;
12482;SDS011;6306;47.134;15.344;2024-01-30T07:56:42;29.10;;;17.00;;
12482;SDS011;6306;47.134;15.344;2024-01-30T07:59:12;34.03;;;17.87;;
12482;SDS011;6306;47.134;15.344;2024-01-30T08:01:41;25.37;;;14.20;;
12482;SDS011;6306;47.134;15.344;2024-01-30T08:04:07;25.93;;;13.37;;
12482;SDS011;6306;47.134;15.344;2024-01-30T08:06:33;30.47;;;13.80;;
12482;SDS011;6306;47.134;15.344;2024-01-30T08:09:00;20.77;;;12.40;;
12482;SDS011;6306;47.134;15.344;2024-01-30T08:11:38;25.13;;;11.77;;
12482;SDS011;6306;47.134;15.344;2024-01-30T08:14:05;21.43;;;11.47;;
12482;SDS011;6306;47.134;15.344;2024-01-30T08:16:34;17.50;;;10.77;;
12482;SDS011;6306;47.134;15.344;2024-01-30T08:19:00;18.87;;;10.20;;
12482;SDS011;6306;47.134;15.344;2024-01-30T08:21:29;17.40;;;10.43;;
12482;SDS011;6306;47.134;15.344;2024-01-30T08:23:55;15.40;;;10.03;;
12482;SDS011;6306;47.134;15.344;2024-01-30T08:26:22;21.23;;;10.73;;
12482;SDS011;6306;47.134;15.344;2024-01-30T08:28:49;20.73;;;11.40;;
12482;SDS011;6306;47.134;15.344;2024-01-30T08:31:18;18.77;;;10.13;;
12482;SDS011;6306;47.134;15.344;2024-01-30T08:33:46;17.63;;;10.07;;
12482;SDS011;6306;47.134;15.344;2024-01-30T08:36:15;19.60;;;7.77;;
12482;SDS011;6306;47.134;15.344;2024-01-30T08:38:42;12.20;;;5.80;;
12482;SDS011;6306;47.134;15.344;2024-01-30T08:41:08;16.70;;;6.90;;
12482;SDS011;6306;47.134;15.344;2024-01-30T08:43:37;10.20;;;5.80;;
12482;SDS011;6306;47.134;15.344;2024-01-30T08:46:03;10.73;;;6.40;;
12482;SDS011;6306;47.134;15.344;2024-01-30T08:48:30;10.90;;;5.87;;
12482;SDS011;6306;47.134;15.344;2024-01-30T08:50:58;12.33;;;6.57;;
12482;SDS011;6306;47.134;15.344;2024-01-30T08:53:25;10.37;;;6.73;;
12482;SDS011;6306;47.134;15.344;2024-01-30T08:55:51;9.30;;;6.33;;
12482;SDS011;6306;47.134;15.344;2024-01-30T08:58:22;14.93;;;5.77;;
12482;SDS011;6306;47.134;15.344;2024-01-30T09:01:02;9.67;;;6.70;;
12482;SDS011;6306;47.134;15.344;2024-01-30T09:03:30;9.23;;;5.53;;
12482;SDS011;6306;47.134;15.344;2024-01-30T09:05:58;9.20;;;5.93;;
12482;SDS011;6306;47.134;15.344;2024-01-30T09:08:24;11.70;;;7.53;;
12482;SDS011;6306;47.134;15.344;2024-01-30T09:10:51;8.53;;;6.93;;
12482;SDS011;6306;47.134;15.344;2024-01-30T09:13:17;10.33;;;7.60;;
12482;SDS011;6306;47.134;15.344;2024-01-30T09:15:50;14.67;;;7.50;;
12482;SDS011;6306;47.134;15.344;2024-01-30T09:18:18;12.73;;;7.60;;
12482;SDS011;6306;47.134;15.344;2024-01-30T09:20:50;14.10;;;8.40;;
12482;SDS011;6306;47.134;15.344;2024-01-30T09:23:17;12.33;;;7.77;;
12482;SDS011;6306;47.134;15.344;2024-01-30T09:25:47;11.27;;;7.27;;
12482;SDS011;6306;47.134;15.344;2024-01-30T09:28:14;9.40;;;7.10;;
12482;SDS011;6306;47.134;15.344;2024-01-30T09:30:49;11.83;;;6.37;;
12482;SDS011;6306;47.134;15.344;2024-01-30T09:33:21;12.80;;;8.33;;
12482;SDS011;6306;47.134;15.344;2024-01-30T09:35:49;12.47;;;8.03;;
12482;SDS011;6306;47.134;15.344;2024-01-30T09:38:16;17.60;;;6.53;;
12482;SDS011;6306;47.134;15.344;2024-01-30T09:40:51;16.00;;;7.43;;
12482;SDS011;6306;47.134;15.344;2024-01-30T09:43:31;11.23;;;6.30;;
12482;SDS011;6306;47.134;15.344;2024-01-30T09:46:01;10.80;;;6.80;;
12482;SDS011;6306;47.134;15.344;2024-01-30T09:48:30;13.57;;;7.30;;
12482;SDS011;6306;47.134;15.344;2024-01-30T09:50:57;26.53;;;8.20;;
12482;SDS011;6306;47.134;15.344;2024-01-30T09:53:31;18.67;;;6.80;;
12482;SDS011;6306;47.134;15.344;2024-01-30T09:55:58;12.40;;;6.03;;
12482;SDS011;6306;47.134;15.344;2024-01-30T09:58:25;17.03;;;6.40;;
12482;SDS011;6306;47.134;15.344;2024-01-30T10:00:52;17.87;;;6.47;;
12482;SDS011;6306;47.134;15.344;2024-01-30T10:03:19;12.73;;;6.63;;
12482;SDS011;6306;47.134;15.344;2024-01-30T10:05:51;12.00;;;5.70;;
12482;SDS011;6306;47.134;15.344;2024-01-30T10:08:20;16.73;;;7.37;;
12482;SDS011;6306;47.134;15.344;2024-01-30T10:10:47;9.13;;;6.30;;
12482;SDS011;6306;47.134;15.344;2024-01-30T10:13:13;13.40;;;7.03;;
12482;SDS011;6306;47.134;15.344;2024-01-30T10:18:12;9.77;;;6.43;;
12482;SDS011;6306;47.134;15.344;2024-01-30T10:23:23;17.13;;;6.60;;
12482;SDS011;6306;47.134;15.344;2024-01-30T10:25:56;15.13;;;5.30;;
12482;SDS011;6306;47.134;15.344;2024-01-30T10:28:23;8.53;;;5.07;;
12482;SDS011;6306;47.134;15.344;2024-01-30T10:30:57;15.13;;;5.90;;
12482;SDS011;6306;47.134;15.344;2024-01-30T10:33:37;8.53;;;5.70;;
12482;SDS011;6306;47.134;15.344;2024-01-30T10:38:42;11.17;;;7.70;;
12482;SDS011;6306;47.134;15.344;2024-01-30T10:44:08;14.33;;;7.83;;
12482;SDS011;6306;47.134;15.344;2024-01-30T10:46:37;11.60;;;6.33;;
12482;SDS011;6306;47.134;15.344;2024-01-30T10:49:12;9.30;;;6.10;;
12482;SDS011;6306;47.134;15.344;2024-01-30T10:51:46;12.93;;;5.73;;
12482;SDS011;6306;47.134;15.344;2024-01-30T10:54:15;15.23;;;6.63;;
12482;SDS011;6306;47.134;15.344;2024-01-30T10:56:43;12.57;;;6.57;;
12482;SDS011;6306;47.134;15.344;2024-01-30T10:59:23;9.87;;;6.53;;
12482;SDS011;6306;47.134;15.344;2024-01-30T11:01:50;18.77;;;7.43;;
12482;SDS011;6306;47.134;15.344;2024-01-30T11:04:23;13.30;;;7.90;;
12482;SDS011;6306;47.134;15.344;2024-01-30T11:06:50;9.30;;;7.07;;
12482;SDS011;6306;47.134;15.344;2024-01-30T11:09:25;18.60;;;7.93;;
12482;SDS011;6306;47.134;15.344;2024-01-30T11:11:59;13.80;;;7.50;;
12482;SDS011;6306;47.134;15.344;2024-01-30T11:14:32;16.37;;;9.23;;
12482;SDS011;6306;47.134;15.344;2024-01-30T11:19:47;24.97;;;9.07;;
12482;SDS011;6306;47.134;15.344;2024-01-30T11:22:13;12.90;;;8.00;;
12482;SDS011;6306;47.134;15.344;2024-01-30T11:24:42;12.23;;;9.40;;
12482;SDS011;6306;47.134;15.344;2024-01-30T11:27:21;14.73;;;11.10;;
12482;SDS011;6306;47.134;15.344;2024-01-30T11:29:50;16.03;;;8.97;;
12482;SDS011;6306;47.134;15.344;2024-01-30T11:32:22;15.80;;;9.30;;
12482;SDS011;6306;47.134;15.344;2024-01-30T11:37:33;20.20;;;9.13;;
12482;SDS011;6306;47.134;15.344;2024-01-30T11:40:03;14.10;;;8.83;;
12482;SDS011;6306;47.134;15.344;2024-01-30T11:42:32;20.80;;;9.37;;
12482;SDS011;6306;47.134;15.344;2024-01-30T11:45:12;12.70;;;9.10;;
12482;SDS011;6306;47.134;15.344;2024-01-30T11:47:38;16.03;;;10.63;;
12482;SDS011;6306;47.134;15.344;2024-01-30T11:50:05;21.47;;;10.57;;
12482;SDS011;6306;47.134;15.344;2024-01-30T11:52:34;15.00;;;10.50;;
12482;SDS011;6306;47.134;15.344;2024-01-30T11:55:02;21.10;;;12.57;;
12482;SDS011;6306;47.134;15.344;2024-01-30T11:57:29;18.30;;;12.30;;
12482;SDS011;6306;47.134;15.344;2024-01-30T11:59:55;20.37;;;11.50;;
12482;SDS011;6306;47.134;15.344;2024-01-30T12:02:22;18.00;;;11.80;;
12482;SDS011;6306;47.134;15.344;2024-01-30T12:04:51;26.83;;;11.53;;
12482;SDS011;6306;47.134;15.344;2024-01-30T12:13:30;23.87;;;13.73;;
12482;SDS011;6306;47.134;15.344;2024-01-30T12:15:57;19.97;;;13.40;;
12482;SDS011;6306;47.134;15.344;2024-01-30T12:18:40;17.33;;;11.70;;
12482;SDS011;6306;47.134;15.344;2024-01-30T12:26:46;25.90;;;15.53;;
